sensor_id;sensor_type;location;lat;lon;timestamp;pressure;altitude;pressure_sealevel;temperature;humidity
47706;BME280;33471;52.104;1.318;2023-03-14T00:00:49;98226.11;;;10.65;55.76
47706;BME280;33471;52.104;1.318;2023-03-14T00:03:16;98226.11;;;10.98;55.53
47706;BME280;33471;52.104;1.318;2023-03-14T00:05:44;98228.52;;;10.16;59.51
47706;BME280;33471;52.104;1.318;2023-03-14T00:08:13;98231.15;;;9.44;60.84
47706;BME280;33471;52.104;1.318;2023-03-14T00:10:40;98229.26;;;9.52;61.21
47706;BME280;33471;52.104;1.318;2023-03-14T00:13:07;98231.94;;;9.38;60.95
47706;BME280;33471;52.104;1.318;2023-03-14T00:15:35;98226.36;;;9.94;59.92
47706;BME280;33471;52.104;1.318;2023-03-14T00:18:02;98223.56;;;9.94;60.59
47706;BME280;33471;52.104;1.318;2023-03-14T00:20:29;98226.52;;;9.57;60.59
47706;BME280;33471;52.104;1.318;2023-03-14T00:22:56;98218.52;;;10.22;59.23
47706;BME280;33471;52.104;1.318;2023-03-14T00:25:24;98219.71;;;10.14;59.53
47706;BME280;33471;52.104;1.318;2023-03-14T00:27:51;98217.96;;;10.24;58.97
47706;BME280;33471;52.104;1.318;2023-03-14T00:30:19;98214.42;;;10.03;60.85
47706;BME280;33471;52.104;1.318;2023-03-14T00:32:47;98218.17;;;8.95;63.45
47706;BME280;33471;52.104;1.318;2023-03-14T00:35:15;98219.04;;;9.41;62.37
47706;BME280;33471;52.104;1.318;2023-03-14T00:37:42;98216.47;;;9.74;60.96
47706;BME280;33471;52.104;1.318;2023-03-14T00:40:09;98221.14;;;9.68;59.50
47706;BME280;33471;52.104;1.318;2023-03-14T00:42:36;98217.88;;;10.25;58.21
47706;BME280;33471;52.104;1.318;2023-03-14T00:45:04;98225.78;;;9.88;60.23
47706;BME280;33471;52.104;1.318;2023-03-14T00:47:32;98221.60;;;10.05;59.11
47706;BME280;33471;52.104;1.318;2023-03-14T00:49:59;98218.70;;;10.96;57.26
47706;BME280;33471;52.104;1.318;2023-03-14T00:52:26;98220.82;;;10.19;59.90
47706;BME280;33471;52.104;1.318;2023-03-14T00:54:53;98218.77;;;9.82;61.08
47706;BME280;33471;52.104;1.318;2023-03-14T00:57:20;98223.24;;;10.45;58.86
47706;BME280;33471;52.104;1.318;2023-03-14T00:59:47;98225.59;;;10.21;58.83
47706;BME280;33471;52.104;1.318;2023-03-14T01:02:14;98229.66;;;9.74;60.38
47706;BME280;33471;52.104;1.318;2023-03-14T01:04:42;98230.02;;;9.18;61.12
47706;BME280;33471;52.104;1.318;2023-03-14T01:07:09;98227.92;;;8.68;63.79
47706;BME280;33471;52.104;1.318;2023-03-14T01:09:36;98234.93;;;9.89;61.53
47706;BME280;33471;52.104;1.318;2023-03-14T01:12:04;98231.61;;;9.51;62.70
47706;BME280;33471;52.104;1.318;2023-03-14T01:14:31;98227.05;;;8.88;65.15
47706;BME280;33471;52.104;1.318;2023-03-14T01:16:59;98234.87;;;9.29;64.57
47706;BME280;33471;52.104;1.318;2023-03-14T01:19:26;98230.24;;;9.56;64.69
47706;BME280;33471;52.104;1.318;2023-03-14T01:21:54;98231.03;;;9.96;63.79
47706;BME280;33471;52.104;1.318;2023-03-14T01:24:21;98232.61;;;9.64;63.40
47706;BME280;33471;52.104;1.318;2023-03-14T01:26:48;98232.01;;;9.46;64.54
47706;BME280;33471;52.104;1.318;2023-03-14T01:29:15;98228.14;;;9.54;65.18
47706;BME280;33471;52.104;1.318;2023-03-14T01:31:42;98230.51;;;9.86;63.79
47706;BME280;33471;52.104;1.318;2023-03-14T01:34:10;98229.57;;;9.01;65.31
47706;BME280;33471;52.104;1.318;2023-03-14T01:36:37;98231.46;;;9.54;64.46
47706;BME280;33471;52.104;1.318;2023-03-14T01:39:05;98243.77;;;10.25;61.57
47706;BME280;33471;52.104;1.318;2023-03-14T01:41:32;98284.79;;;8.56;65.73
47706;BME280;33471;52.104;1.318;2023-03-14T01:43:59;98314.61;;;6.57;71.79
47706;BME280;33471;52.104;1.318;2023-03-14T01:46:32;98339.67;;;6.01;72.30
47706;BME280;33471;52.104;1.318;2023-03-14T01:49:05;98350.21;;;6.06;71.78
47706;BME280;33471;52.104;1.318;2023-03-14T01:51:38;98363.67;;;6.24;71.07
47706;BME280;33471;52.104;1.318;2023-03-14T01:54:12;98363.83;;;5.95;69.97
47706;BME280;33471;52.104;1.318;2023-03-14T01:56:42;98371.87;;;5.88;70.35
47706;BME280;33471;52.104;1.318;2023-03-14T01:59:11;98376.90;;;6.29;67.52
47706;BME280;33471;52.104;1.318;2023-03-14T02:01:41;98376.23;;;6.08;68.69
47706;BME280;33471;52.104;1.318;2023-03-14T02:04:10;98375.72;;;5.05;70.02
47706;BME280;33471;52.104;1.318;2023-03-14T02:06:47;98379.58;;;5.39;70.55
47706;BME280;33471;52.104;1.318;2023-03-14T02:09:16;98383.98;;;5.74;68.10
47706;BME280;33471;52.104;1.318;2023-03-14T02:11:44;98385.55;;;5.22;70.98
47706;BME280;33471;52.104;1.318;2023-03-14T02:14:21;98391.67;;;5.27;70.01
47706;BME280;33471;52.104;1.318;2023-03-14T02:16:49;98396.77;;;5.70;69.22
47706;BME280;33471;52.104;1.318;2023-03-14T02:19:20;98402.05;;;5.72;67.84
47706;BME280;33471;52.104;1.318;2023-03-14T02:21:59;98403.91;;;5.38;70.40
47706;BME280;33471;52.104;1.318;2023-03-14T02:24:35;98422.25;;;5.42;70.46
47706;BME280;33471;52.104;1.318;2023-03-14T02:27:11;98425.34;;;5.43;68.99
47706;BME280;33471;52.104;1.318;2023-03-14T02:29:45;98429.90;;;5.83;67.88
47706;BME280;33471;52.104;1.318;2023-03-14T02:32:13;98449.01;;;5.07;70.68
47706;BME280;33471;52.104;1.318;2023-03-14T02:34:42;98456.46;;;5.35;70.23
47706;BME280;33471;52.104;1.318;2023-03-14T02:37:12;98467.79;;;4.45;73.05
47706;BME280;33471;52.104;1.318;2023-03-14T02:39:43;98470.59;;;5.27;69.59
47706;BME280;33471;52.104;1.318;2023-03-14T02:42:12;98477.59;;;4.61;71.68
47706;BME280;33471;52.104;1.318;2023-03-14T02:45:25;98483.37;;;5.24;69.61
47706;BME280;33471;52.104;1.318;2023-03-14T02:48:01;98491.06;;;5.02;70.64
47706;BME280;33471;52.104;1.318;2023-03-14T02:50:33;98500.47;;;4.22;71.77
47706;BME280;33471;52.104;1.318;2023-03-14T02:53:01;98503.76;;;4.52;71.83
47706;BME280;33471;52.104;1.318;2023-03-14T02:55:28;98502.42;;;4.49;70.31
47706;BME280;33471;52.104;1.318;2023-03-14T02:57:55;98512.71;;;4.78;69.02
47706;BME280;33471;52.104;1.318;2023-03-14T03:00:22;98509.22;;;4.96;68.65
47706;BME280;33471;52.104;1.318;2023-03-14T03:02:49;98509.02;;;4.07;71.63
47706;BME280;33471;52.104;1.318;2023-03-14T03:05:16;98506.79;;;4.61;70.42
47706;BME280;33471;52.104;1.318;2023-03-14T03:07:43;98511.40;;;5.68;67.28
47706;BME280;33471;52.104;1.318;2023-03-14T03:10:11;98513.95;;;5.59;66.17
47706;BME280;33471;52.104;1.318;2023-03-14T03:12:38;98529.85;;;5.36;66.31
47706;BME280;33471;52.104;1.318;2023-03-14T03:15:07;98534.57;;;4.59;68.29
47706;BME280;33471;52.104;1.318;2023-03-14T03:17:34;98538.56;;;5.18;67.73
47706;BME280;33471;52.104;1.318;2023-03-14T03:20:02;98547.23;;;5.06;67.93
47706;BME280;33471;52.104;1.318;2023-03-14T03:22:29;98547.38;;;4.91;68.63
47706;BME280;33471;52.104;1.318;2023-03-14T03:24:56;98550.18;;;4.28;70.24
47706;BME280;33471;52.104;1.318;2023-03-14T03:27:23;98550.61;;;4.24;69.30
47706;BME280;33471;52.104;1.318;2023-03-14T03:29:50;98558.23;;;4.63;67.95
47706;BME280;33471;52.104;1.318;2023-03-14T03:32:17;98566.72;;;4.58;67.91
47706;BME280;33471;52.104;1.318;2023-03-14T03:34:44;98572.64;;;4.19;69.47
47706;BME280;33471;52.104;1.318;2023-03-14T03:37:11;98572.93;;;4.28;69.16
47706;BME280;33471;52.104;1.318;2023-03-14T03:39:39;98582.49;;;4.11;68.66
47706;BME280;33471;52.104;1.318;2023-03-14T03:42:06;98585.17;;;4.12;68.65
47706;BME280;33471;52.104;1.318;2023-03-14T03:44:34;98599.22;;;3.91;69.84
47706;BME280;33471;52.104;1.318;2023-03-14T03:47:01;98607.74;;;3.84;69.24
47706;BME280;33471;52.104;1.318;2023-03-14T03:49:29;98619.82;;;3.66;71.95
47706;BME280;33471;52.104;1.318;2023-03-14T03:51:56;98623.12;;;4.57;68.06
47706;BME280;33471;52.104;1.318;2023-03-14T03:54:24;98619.34;;;4.29;67.78
47706;BME280;33471;52.104;1.318;2023-03-14T03:56:51;98626.65;;;4.27;67.67
47706;BME280;33471;52.104;1.318;2023-03-14T03:59:18;98634.37;;;4.15;67.85
47706;BME280;33471;52.104;1.318;2023-03-14T04:01:45;98645.15;;;4.32;68.09
47706;BME280;33471;52.104;1.318;2023-03-14T04:04:13;98655.03;;;3.82;69.02
47706;BME280;33471;52.104;1.318;2023-03-14T04:06:40;98659.67;;;4.08;67.78
47706;BME280;33471;52.104;1.318;2023-03-14T04:09:07;98667.46;;;4.25;66.93
47706;BME280;33471;52.104;1.318;2023-03-14T04:11:35;98674.60;;;3.97;67.95
47706;BME280;33471;52.104;1.318;2023-03-14T04:14:02;98678.86;;;4.05;68.50
47706;BME280;33471;52.104;1.318;2023-03-14T04:16:30;98685.37;;;3.65;69.23
47706;BME280;33471;52.104;1.318;2023-03-14T04:18:57;98692.60;;;4.20;67.03
47706;BME280;33471;52.104;1.318;2023-03-14T04:21:24;98693.99;;;4.48;65.94
47706;BME280;33471;52.104;1.318;2023-03-14T04:23:51;98712.03;;;4.63;66.07
47706;BME280;33471;52.104;1.318;2023-03-14T04:26:19;98715.78;;;3.87;66.98
47706;BME280;33471;52.104;1.318;2023-03-14T04:28:46;98732.52;;;3.54;68.59
47706;BME280;33471;52.104;1.318;2023-03-14T04:31:15;98743.15;;;3.55;68.82
47706;BME280;33471;52.104;1.318;2023-03-14T04:33:43;98750.64;;;4.12;66.81
47706;BME280;33471;52.104;1.318;2023-03-14T04:36:11;98753.43;;;3.73;67.65
47706;BME280;33471;52.104;1.318;2023-03-14T04:38:38;98758.61;;;3.56;68.20
47706;BME280;33471;52.104;1.318;2023-03-14T04:41:06;98769.83;;;4.14;66.05
47706;BME280;33471;52.104;1.318;2023-03-14T04:43:33;98775.69;;;4.17;66.29
47706;BME280;33471;52.104;1.318;2023-03-14T04:46:00;98777.39;;;4.89;64.20
47706;BME280;33471;52.104;1.318;2023-03-14T04:48:28;98779.17;;;4.01;66.36
47706;BME280;33471;52.104;1.318;2023-03-14T04:50:56;98784.43;;;3.91;67.99
47706;BME280;33471;52.104;1.318;2023-03-14T04:53:23;98788.21;;;4.53;65.76
47706;BME280;33471;52.104;1.318;2023-03-14T04:55:51;98789.05;;;5.13;62.97
47706;BME280;33471;52.104;1.318;2023-03-14T04:58:19;98800.86;;;4.19;64.89
47706;BME280;33471;52.104;1.318;2023-03-14T05:00:47;98804.37;;;4.21;66.86
47706;BME280;33471;52.104;1.318;2023-03-14T05:03:15;98812.74;;;4.09;66.04
47706;BME280;33471;52.104;1.318;2023-03-14T05:05:43;98816.80;;;4.43;64.08
47706;BME280;33471;52.104;1.318;2023-03-14T05:08:10;98823.19;;;3.50;66.02
47706;BME280;33471;52.104;1.318;2023-03-14T05:10:38;98831.82;;;4.19;65.15
47706;BME280;33471;52.104;1.318;2023-03-14T05:13:06;98834.87;;;3.85;65.51
47706;BME280;33471;52.104;1.318;2023-03-14T05:15:33;98839.64;;;4.05;64.87
47706;BME280;33471;52.104;1.318;2023-03-14T05:18:01;98846.17;;;4.63;63.53
47706;BME280;33471;52.104;1.318;2023-03-14T05:20:28;98848.44;;;5.12;61.60
47706;BME280;33471;52.104;1.318;2023-03-14T05:22:56;98854.88;;;4.58;62.31
47706;BME280;33471;52.104;1.318;2023-03-14T05:25:24;98859.36;;;4.15;63.25
47706;BME280;33471;52.104;1.318;2023-03-14T05:27:53;98866.09;;;4.21;62.83
47706;BME280;33471;52.104;1.318;2023-03-14T05:30:20;98872.45;;;3.87;63.39
47706;BME280;33471;52.104;1.318;2023-03-14T05:32:47;98877.19;;;4.91;61.64
47706;BME280;33471;52.104;1.318;2023-03-14T05:35:15;98879.51;;;4.77;62.34
47706;BME280;33471;52.104;1.318;2023-03-14T05:37:42;98888.26;;;4.72;62.44
47706;BME280;33471;52.104;1.318;2023-03-14T05:40:10;98898.07;;;4.68;62.70
47706;BME280;33471;52.104;1.318;2023-03-14T05:42:38;98898.13;;;4.22;63.92
47706;BME280;33471;52.104;1.318;2023-03-14T05:45:06;98897.21;;;4.39;64.08
47706;BME280;33471;52.104;1.318;2023-03-14T05:47:34;98905.22;;;4.44;64.37
47706;BME280;33471;52.104;1.318;2023-03-14T05:50:01;98914.93;;;4.83;63.40
47706;BME280;33471;52.104;1.318;2023-03-14T05:52:29;98919.61;;;4.10;65.08
47706;BME280;33471;52.104;1.318;2023-03-14T05:54:56;98923.76;;;4.82;63.09
47706;BME280;33471;52.104;1.318;2023-03-14T05:57:23;98932.94;;;4.50;63.71
47706;BME280;33471;52.104;1.318;2023-03-14T05:59:50;98945.44;;;4.85;63.87
47706;BME280;33471;52.104;1.318;2023-03-14T06:02:17;98950.07;;;4.54;65.53
47706;BME280;33471;52.104;1.318;2023-03-14T06:04:44;98954.66;;;4.75;64.63
47706;BME280;33471;52.104;1.318;2023-03-14T06:07:12;98962.06;;;4.93;64.45
47706;BME280;33471;52.104;1.318;2023-03-14T06:09:39;98970.15;;;4.66;65.07
47706;BME280;33471;52.104;1.318;2023-03-14T06:12:06;98976.18;;;4.63;65.21
47706;BME280;33471;52.104;1.318;2023-03-14T06:14:34;98986.17;;;4.58;65.13
47706;BME280;33471;52.104;1.318;2023-03-14T06:17:02;98992.22;;;4.92;65.40
47706;BME280;33471;52.104;1.318;2023-03-14T06:19:29;99003.36;;;4.65;65.62
47706;BME280;33471;52.104;1.318;2023-03-14T06:21:56;99008.81;;;4.67;65.75
47706;BME280;33471;52.104;1.318;2023-03-14T06:24:24;99025.53;;;4.76;65.75
47706;BME280;33471;52.104;1.318;2023-03-14T06:26:52;99035.56;;;4.28;68.24
47706;BME280;33471;52.104;1.318;2023-03-14T06:29:19;99044.57;;;4.22;68.53
47706;BME280;33471;52.104;1.318;2023-03-14T06:31:46;99056.07;;;4.18;70.72
47706;BME280;33471;52.104;1.318;2023-03-14T06:34:13;99066.42;;;4.01;69.45
47706;BME280;33471;52.104;1.318;2023-03-14T06:36:40;99077.44;;;4.25;68.94
47706;BME280;33471;52.104;1.318;2023-03-14T06:39:07;99090.73;;;3.50;70.67
47706;BME280;33471;52.104;1.318;2023-03-14T06:41:35;99097.96;;;4.08;69.17
47706;BME280;33471;52.104;1.318;2023-03-14T06:44:01;99108.33;;;4.60;67.87
47706;BME280;33471;52.104;1.318;2023-03-14T06:46:29;99123.21;;;4.84;65.75
47706;BME280;33471;52.104;1.318;2023-03-14T06:48:56;99126.96;;;5.09;64.36
47706;BME280;33471;52.104;1.318;2023-03-14T06:51:23;99129.38;;;5.87;61.75
47706;BME280;33471;52.104;1.318;2023-03-14T06:53:50;99134.86;;;5.90;60.43
47706;BME280;33471;52.104;1.318;2023-03-14T06:56:17;99141.64;;;6.09;60.33
47706;BME280;33471;52.104;1.318;2023-03-14T06:58:44;99157.58;;;5.00;62.46
47706;BME280;33471;52.104;1.318;2023-03-14T07:01:19;99159.47;;;5.73;60.52
47706;BME280;33471;52.104;1.318;2023-03-14T07:03:47;99177.72;;;5.73;60.58
47706;BME280;33471;52.104;1.318;2023-03-14T07:06:14;99182.68;;;6.04;58.34
47706;BME280;33471;52.104;1.318;2023-03-14T07:08:41;99197.81;;;5.86;59.18
47706;BME280;33471;52.104;1.318;2023-03-14T07:11:09;99203.87;;;5.58;60.26
47706;BME280;33471;52.104;1.318;2023-03-14T07:13:36;99214.53;;;5.88;58.87
47706;BME280;33471;52.104;1.318;2023-03-14T07:16:03;99226.74;;;5.68;59.91
47706;BME280;33471;52.104;1.318;2023-03-14T07:18:31;99237.43;;;6.09;58.47
47706;BME280;33471;52.104;1.318;2023-03-14T07:20:58;99250.86;;;5.31;60.06
47706;BME280;33471;52.104;1.318;2023-03-14T07:23:25;99259.05;;;6.01;58.99
47706;BME280;33471;52.104;1.318;2023-03-14T07:25:52;99274.65;;;6.36;58.24
47706;BME280;33471;52.104;1.318;2023-03-14T07:28:19;99286.46;;;5.39;59.29
47706;BME280;33471;52.104;1.318;2023-03-14T07:30:46;99303.80;;;4.67;61.35
47706;BME280;33471;52.104;1.318;2023-03-14T07:33:13;99309.21;;;4.70;60.89
47706;BME280;33471;52.104;1.318;2023-03-14T07:35:41;99322.19;;;5.33;60.09
47706;BME280;33471;52.104;1.318;2023-03-14T07:38:08;99332.21;;;4.65;60.61
47706;BME280;33471;52.104;1.318;2023-03-14T07:40:35;99341.70;;;5.69;59.15
47706;BME280;33471;52.104;1.318;2023-03-14T07:43:07;99351.12;;;5.94;57.90
47706;BME280;33471;52.104;1.318;2023-03-14T07:45:34;99363.80;;;5.64;58.90
47706;BME280;33471;52.104;1.318;2023-03-14T07:48:02;99368.56;;;6.25;56.64
47706;BME280;33471;52.104;1.318;2023-03-14T07:50:29;99374.92;;;5.49;58.77
47706;BME280;33471;52.104;1.318;2023-03-14T07:52:56;99386.20;;;4.90;59.63
47706;BME280;33471;52.104;1.318;2023-03-14T07:55:23;99394.40;;;5.70;58.75
47706;BME280;33471;52.104;1.318;2023-03-14T07:57:51;99403.38;;;5.26;58.31
47706;BME280;33471;52.104;1.318;2023-03-14T08:00:18;99415.47;;;5.27;59.61
47706;BME280;33471;52.104;1.318;2023-03-14T08:02:46;99425.44;;;4.43;60.47
47706;BME280;33471;52.104;1.318;2023-03-14T08:05:12;99434.84;;;4.06;61.48
47706;BME280;33471;52.104;1.318;2023-03-14T08:07:40;99451.20;;;4.71;60.84
47706;BME280;33471;52.104;1.318;2023-03-14T08:10:08;99460.32;;;4.60;61.52
47706;BME280;33471;52.104;1.318;2023-03-14T08:12:36;99469.11;;;4.01;62.85
47706;BME280;33471;52.104;1.318;2023-03-14T08:15:03;99479.35;;;4.06;62.79
47706;BME280;33471;52.104;1.318;2023-03-14T08:17:30;99493.64;;;3.96;63.53
47706;BME280;33471;52.104;1.318;2023-03-14T08:19:57;99504.56;;;3.19;66.00
47706;BME280;33471;52.104;1.318;2023-03-14T08:22:24;99523.51;;;3.19;66.26
47706;BME280;33471;52.104;1.318;2023-03-14T08:24:51;99521.96;;;4.38;63.60
47706;BME280;33471;52.104;1.318;2023-03-14T08:27:18;99540.68;;;3.33;65.56
47706;BME280;33471;52.104;1.318;2023-03-14T08:29:45;99553.52;;;3.59;66.63
47706;BME280;33471;52.104;1.318;2023-03-14T08:32:12;99571.21;;;2.87;66.84
47706;BME280;33471;52.104;1.318;2023-03-14T08:34:39;99578.97;;;2.28;68.71
47706;BME280;33471;52.104;1.318;2023-03-14T08:37:07;99590.22;;;2.12;69.46
47706;BME280;33471;52.104;1.318;2023-03-14T08:39:35;99597.30;;;3.54;64.88
47706;BME280;33471;52.104;1.318;2023-03-14T08:42:02;99601.35;;;4.14;64.41
47706;BME280;33471;52.104;1.318;2023-03-14T08:44:29;99613.82;;;3.44;64.04
47706;BME280;33471;52.104;1.318;2023-03-14T08:46:56;99615.31;;;4.80;61.15
47706;BME280;33471;52.104;1.318;2023-03-14T08:49:23;99622.17;;;5.43;60.97
47706;BME280;33471;52.104;1.318;2023-03-14T08:51:50;99631.13;;;4.59;61.12
47706;BME280;33471;52.104;1.318;2023-03-14T08:54:17;99643.85;;;5.07;60.18
47706;BME280;33471;52.104;1.318;2023-03-14T08:56:45;99655.11;;;5.04;61.15
47706;BME280;33471;52.104;1.318;2023-03-14T08:59:12;99663.81;;;4.36;61.46
47706;BME280;33471;52.104;1.318;2023-03-14T09:01:39;99670.40;;;5.29;60.53
47706;BME280;33471;52.104;1.318;2023-03-14T09:04:07;99692.46;;;4.59;61.48
47706;BME280;33471;52.104;1.318;2023-03-14T09:06:35;99703.25;;;4.49;61.53
47706;BME280;33471;52.104;1.318;2023-03-14T09:09:02;99714.33;;;4.40;61.20
47706;BME280;33471;52.104;1.318;2023-03-14T09:11:31;99721.95;;;3.75;64.01
47706;BME280;33471;52.104;1.318;2023-03-14T09:13:58;99742.50;;;3.02;66.44
47706;BME280;33471;52.104;1.318;2023-03-14T09:16:25;99750.44;;;2.25;68.12
47706;BME280;33471;52.104;1.318;2023-03-14T09:18:52;99750.32;;;3.35;64.91
47706;BME280;33471;52.104;1.318;2023-03-14T09:21:21;99762.83;;;2.84;67.13
47706;BME280;33471;52.104;1.318;2023-03-14T09:23:48;99770.33;;;3.25;66.15
47706;BME280;33471;52.104;1.318;2023-03-14T09:26:15;99782.07;;;3.29;65.40
47706;BME280;33471;52.104;1.318;2023-03-14T09:28:43;99801.74;;;2.87;66.81
47706;BME280;33471;52.104;1.318;2023-03-14T09:31:12;99812.49;;;2.34;67.66
47706;BME280;33471;52.104;1.318;2023-03-14T09:33:44;99821.76;;;2.52;66.63
47706;BME280;33471;52.104;1.318;2023-03-14T09:36:11;99823.81;;;2.54;64.10
47706;BME280;33471;52.104;1.318;2023-03-14T09:38:39;99835.77;;;2.93;63.61
47706;BME280;33471;52.104;1.318;2023-03-14T09:41:14;99836.67;;;2.76;63.02
47706;BME280;33471;52.104;1.318;2023-03-14T09:43:42;99845.72;;;3.32;62.09
47706;BME280;33471;52.104;1.318;2023-03-14T09:46:12;99852.13;;;3.69;61.84
47706;BME280;33471;52.104;1.318;2023-03-14T09:48:41;99857.09;;;3.67;60.35
47706;BME280;33471;52.104;1.318;2023-03-14T09:51:14;99862.52;;;4.06;59.45
47706;BME280;33471;52.104;1.318;2023-03-14T09:53:45;99875.02;;;3.94;59.05
47706;BME280;33471;52.104;1.318;2023-03-14T09:56:16;99881.87;;;4.44;58.51
47706;BME280;33471;52.104;1.318;2023-03-14T09:58:47;99886.72;;;3.38;60.63
47706;BME280;33471;52.104;1.318;2023-03-14T10:01:18;99892.88;;;3.24;61.34
47706;BME280;33471;52.104;1.318;2023-03-14T10:03:47;99902.48;;;3.55;60.09
47706;BME280;33471;52.104;1.318;2023-03-14T10:06:15;99907.75;;;3.18;61.33
47706;BME280;33471;52.104;1.318;2023-03-14T10:08:43;99916.36;;;4.40;58.30
47706;BME280;33471;52.104;1.318;2023-03-14T10:11:14;99927.14;;;3.71;59.49
47706;BME280;33471;52.104;1.318;2023-03-14T10:14:03;99936.79;;;3.65;58.95
47706;BME280;33471;52.104;1.318;2023-03-14T10:16:31;99947.83;;;3.34;60.30
47706;BME280;33471;52.104;1.318;2023-03-14T10:19:03;99950.54;;;4.23;58.17
47706;BME280;33471;52.104;1.318;2023-03-14T10:21:36;99949.17;;;4.41;58.15
47706;BME280;33471;52.104;1.318;2023-03-14T10:24:15;99952.50;;;4.16;58.28
47706;BME280;33471;52.104;1.318;2023-03-14T10:26:48;99958.87;;;4.53;56.48
47706;BME280;33471;52.104;1.318;2023-03-14T10:29:16;99963.73;;;5.27;53.98
47706;BME280;33471;52.104;1.318;2023-03-14T10:31:48;99966.52;;;6.55;52.16
47706;BME280;33471;52.104;1.318;2023-03-14T10:34:22;99978.36;;;5.87;51.72
47706;BME280;33471;52.104;1.318;2023-03-14T10:36:53;99984.21;;;6.44;51.67
47706;BME280;33471;52.104;1.318;2023-03-14T10:39:29;99981.58;;;6.61;49.41
47706;BME280;33471;52.104;1.318;2023-03-14T10:42:04;99980.67;;;6.94;49.16
47706;BME280;33471;52.104;1.318;2023-03-14T10:44:37;99986.83;;;7.42;48.56
47706;BME280;33471;52.104;1.318;2023-03-14T10:47:06;99995.60;;;7.69;47.06
47706;BME280;33471;52.104;1.318;2023-03-14T10:49:35;100001.89;;;7.77;47.93
47706;BME280;33471;52.104;1.318;2023-03-14T10:52:14;100013.40;;;7.72;48.50
47706;BME280;33471;52.104;1.318;2023-03-14T10:54:47;100019.82;;;6.92;48.51
47706;BME280;33471;52.104;1.318;2023-03-14T10:57:15;100024.39;;;7.35;46.75
47706;BME280;33471;52.104;1.318;2023-03-14T10:59:43;100029.41;;;7.23;47.41
47706;BME280;33471;52.104;1.318;2023-03-14T11:02:27;100031.41;;;8.36;46.16
47706;BME280;33471;52.104;1.318;2023-03-14T11:05:04;100038.84;;;7.64;46.61
47706;BME280;33471;52.104;1.318;2023-03-14T11:07:40;100043.70;;;7.63;45.96
47706;BME280;33471;52.104;1.318;2023-03-14T11:10:18;100051.89;;;6.75;47.50
47706;BME280;33471;52.104;1.318;2023-03-14T11:12:56;100064.70;;;6.08;48.40
47706;BME280;33471;52.104;1.318;2023-03-14T11:15:31;100069.12;;;6.67;49.02
47706;BME280;33471;52.104;1.318;2023-03-14T11:18:19;100069.73;;;6.83;47.53
47706;BME280;33471;52.104;1.318;2023-03-14T11:20:52;100083.88;;;7.16;48.37
47706;BME280;33471;52.104;1.318;2023-03-14T11:23:25;100086.72;;;5.40;53.73
47706;BME280;33471;52.104;1.318;2023-03-14T11:26:01;100092.48;;;5.21;54.90
47706;BME280;33471;52.104;1.318;2023-03-14T11:28:37;100101.79;;;5.66;53.73
47706;BME280;33471;52.104;1.318;2023-03-14T11:31:12;100110.15;;;5.03;55.52
47706;BME280;33471;52.104;1.318;2023-03-14T11:33:47;100118.85;;;5.23;56.25
47706;BME280;33471;52.104;1.318;2023-03-14T11:36:26;100129.64;;;5.10;55.26
47706;BME280;33471;52.104;1.318;2023-03-14T11:38:57;100127.89;;;5.88;54.41
47706;BME280;33471;52.104;1.318;2023-03-14T11:41:29;100134.19;;;5.30;56.38
47706;BME280;33471;52.104;1.318;2023-03-14T11:43:59;100136.10;;;5.76;55.01
47706;BME280;33471;52.104;1.318;2023-03-14T11:46:29;100139.72;;;5.91;54.82
47706;BME280;33471;52.104;1.318;2023-03-14T11:49:03;100139.18;;;6.18;53.90
47706;BME280;33471;52.104;1.318;2023-03-14T11:51:35;100144.35;;;5.92;53.52
47706;BME280;33471;52.104;1.318;2023-03-14T11:54:11;100146.54;;;5.20;55.38
47706;BME280;33471;52.104;1.318;2023-03-14T11:56:45;100139.67;;;5.59;54.25
47706;BME280;33471;52.104;1.318;2023-03-14T11:59:17;100144.33;;;6.12;52.65
47706;BME280;33471;52.104;1.318;2023-03-14T12:01:54;100151.87;;;6.40;50.78
47706;BME280;33471;52.104;1.318;2023-03-14T12:04:35;100163.26;;;5.86;52.31
47706;BME280;33471;52.104;1.318;2023-03-14T12:07:14;100165.85;;;5.65;53.11
47706;BME280;33471;52.104;1.318;2023-03-14T12:09:45;100159.36;;;5.96;53.65
47706;BME280;33471;52.104;1.318;2023-03-14T12:12:14;100164.89;;;7.35;49.63
47706;BME280;33471;52.104;1.318;2023-03-14T12:14:46;100178.45;;;7.45;47.67
47706;BME280;33471;52.104;1.318;2023-03-14T12:17:20;100184.35;;;7.01;46.99
47706;BME280;33471;52.104;1.318;2023-03-14T12:20:02;100183.98;;;6.71;47.48
47706;BME280;33471;52.104;1.318;2023-03-14T12:22:32;100192.88;;;6.24;47.80
47706;BME280;33471;52.104;1.318;2023-03-14T12:25:05;100196.21;;;6.37;48.02
47706;BME280;33471;52.104;1.318;2023-03-14T12:27:45;100197.30;;;6.40;47.03
47706;BME280;33471;52.104;1.318;2023-03-14T12:30:22;100194.91;;;7.11;43.78
47706;BME280;33471;52.104;1.318;2023-03-14T12:33:14;100199.68;;;7.24;45.05
47706;BME280;33471;52.104;1.318;2023-03-14T12:35:48;100206.42;;;7.51;43.72
47706;BME280;33471;52.104;1.318;2023-03-14T12:38:21;100204.64;;;6.55;45.23
47706;BME280;33471;52.104;1.318;2023-03-14T12:40:56;100211.68;;;6.74;44.27
47706;BME280;33471;52.104;1.318;2023-03-14T12:43:27;100216.75;;;6.59;42.29
47706;BME280;33471;52.104;1.318;2023-03-14T12:46:21;100227.30;;;6.04;39.87
47706;BME280;33471;52.104;1.318;2023-03-14T12:48:49;100225.83;;;6.21;38.53
47706;BME280;33471;52.104;1.318;2023-03-14T12:51:19;100228.36;;;6.58;38.14
47706;BME280;33471;52.104;1.318;2023-03-14T12:54:15;100232.77;;;6.61;38.75
47706;BME280;33471;52.104;1.318;2023-03-14T12:56:55;100241.59;;;6.20;38.97
47706;BME280;33471;52.104;1.318;2023-03-14T12:59:30;100243.02;;;6.68;36.48
47706;BME280;33471;52.104;1.318;2023-03-14T13:02:02;100254.46;;;6.02;39.54
47706;BME280;33471;52.104;1.318;2023-03-14T13:04:44;100263.34;;;6.00;38.63
47706;BME280;33471;52.104;1.318;2023-03-14T13:07:15;100263.37;;;6.15;37.98
47706;BME280;33471;52.104;1.318;2023-03-14T13:10:00;100258.69;;;6.66;37.31
47706;BME280;33471;52.104;1.318;2023-03-14T13:12:34;100268.37;;;5.92;38.05
47706;BME280;33471;52.104;1.318;2023-03-14T13:15:15;100272.51;;;5.48;40.09
47706;BME280;33471;52.104;1.318;2023-03-14T13:17:46;100269.94;;;6.27;39.75
47706;BME280;33471;52.104;1.318;2023-03-14T13:20:18;100273.91;;;6.02;40.15